< Typhoon 201219 2012 Season Typhoon 201221 >
Typhoon 201220 (GAEMI)
General InformationTrack Information on Google MapsDetailed Wind InformationAccess Analytics MapList of All Images || NewsDisaster Info.WeblogTrackbackTyphoon FrontTwiphoonTyphoon Now!Typhoon ImaginationResourceGoogle EarthGE AnimationAtom FeedGeoJSON
Detalied Best Track (Time Zone = UTC)
Year Month Day Hour Lat. Long. Pressure (hPa) Wind (kt) Class Image Chart
2012 9 29 00 13.0 112.4 1008 0 2 Image Chart
2012 9 29 06 13.3 112.7 1006 0 2 Image Chart
2012 9 29 12 13.5 113.1 1006 0 2 Image Chart
2012 9 29 18 13.8 113.3 1006 0 2 Image Chart
2012 9 30 00 14.2 113.5 1008 0 2 Image Chart
2012 9 30 06 14.8 113.5 1006 0 2 Image Chart
2012 9 30 12 15.3 113.5 1006 0 2 Image Chart
2012 9 30 18 15.7 113.9 1006 0 2 Image Chart
2012 10 1 00 16.3 114.7 1008 0 2 Image Chart
2012 10 1 06 17.1 115.0 1006 0 2 Image Chart
2012 10 1 12 17.2 115.0 1002 35 3 Image Chart
2012 10 1 18 16.9 115.0 1002 35 3 Image Chart
2012 10 2 00 16.5 115.4 1004 35 3 Image Chart
2012 10 2 06 16.0 115.8 1002 35 3 Image Chart
2012 10 2 12 15.6 116.4 1000 35 3 Image Chart
2012 10 2 18 15.4 116.8 996 40 3 Image Chart
2012 10 3 00 15.4 117.2 992 45 3 Image Chart
2012 10 3 06 15.3 117.7 990 50 4 Image Chart
2012 10 3 12 15.3 118.0 990 50 4 Image Chart
2012 10 3 18 15.2 118.2 992 45 3 Image Chart
2012 10 4 00 15.0 118.3 992 45 3 Image Chart
2012 10 4 06 14.9 118.2 992 45 3 Image Chart
2012 10 4 12 14.6 118.0 994 40 3 Image Chart
2012 10 4 18 14.4 117.4 994 40 3 Image Chart
2012 10 5 00 14.5 116.6 994 40 3 Image Chart
2012 10 5 06 14.6 115.8 996 35 3 Image Chart
2012 10 5 12 14.4 114.6 998 35 3 Image Chart
2012 10 5 18 13.9 113.0 998 35 3 Image Chart
2012 10 6 00 13.2 111.5 998 35 3 Image Chart
2012 10 6 06 13.1 110.2 1000 35 3 Image Chart
2012 10 6 12 13.1 108.8 1004 0 2 Image Chart
2012 10 6 18 13.0 107.6 1006 0 2 Image Chart
2012 10 7 00 12.6 106.2 1008 0 2 Image Chart
2012 10 7 06 12.6 105.2 1006 0 2 Image Chart
2012 10 7 12 12.9 104.0 1006 0 2 Image Chart
Japan Meteorological Agency Best Track Data | Correction Date : 2012-10-31
< Typhoon 201219 2012 Season Typhoon 201221 >

Help